Needham Heights, MA (02494)

11:34 PM EST on December 14, 2019 (GMT -0500)
WCVB-TV, Needham Heights | | Change Station
Active Advisory: Wind Advisory

Elev 56 ft 42.30 °N, 71.23 °W | Updated 3 seconds ago

Overcast
Overcast
53.3 °F
Feels Like 53.3 °F
N
14
Wind Variable Wind from West
Gusts 23.0 mph

Today
High -- | Low -- °F
--% Chance of Precip.
Yesterday
High -- | Low -- °F
Precip. -- in
Pressure 29.14 in
Visibility 10.0 miles
Clouds Overcast 2700 ft
Dew Point 45 °F
Humidity 74%
Rainfall 0.86 in
Snow Depth Not available.
7:05 AM 4:13 PM
Waning Gibbous, 90% visible
METAR KOWD 150353Z AUTO 21016G27KT 10SM OVC027 14/08 A2914 RMK AO2 PK WND 21027/0344 SLP868 T01390078
Pressure 29.14 in
Visibility 10.0 miles
Clouds Overcast 2700 ft
Dew Point 45 °F
Humidity 74%
Rainfall 0.86 in
Snow Depth Not available.
7:05 AM 4:13 PM
Waning Gibbous, 90% visible
METAR KOWD 150353Z AUTO 21016G27KT 10SM OVC027 14/08 A2914 RMK AO2 PK WND 21027/0344 SLP868 T01390078

Get Your Daily Forecast Email!

Thanks for signing up!

Be on the lookout for a verification email in your inbox.

You'll start receiving severe weather alerts in your inbox..

×

10-Day Weather Forecast

Almanac

Astronomy

Dec. 14, 2019 Rise Set
Actual Time
Civil Twilight
Nautical Twilight
Astronomical Twilight
Moon
Length of Visible Light
Length of Day
Tomorrow will be .
, % of the Moon is Illuminated

Today's Extremes

State Highs State Lows

Community

WunderPhotos

Category 6

Welcome to Category 6. This is the collective home for Weather Underground's featured writeups by Dr. Jeff Masters (right), Bob Henson (left), Chris Burt, and other regular contributors.

Nearby

Air Quality

  Air Quality AQ Index Pollutant
Not available.

Snow Depth

Station Depth Elevation

Earthquake Activity

City Distance Mag. Time & Date
Minimum magnitude displayed is 2.5.

Coastal Water Temperatures

Place Temperature

Stations

Nearby Weather Stations

Station Location Temp. Windchill Dew Point Humidity Wind Precip. Elev Updated Type
                   

Watches & Warnings

Wind Advisory
Issued: 9:03 PM EST Dec. 14, 2019 – National Weather Service

... Wind Advisory remains in effect from 7 am to 7 PM EST Sunday...

* what... west winds 15 to 25 mph with gusts up to 50 mph
expected.

* Where... portions of central, eastern, northeastern,
southeastern and western Massachusetts.

* When... from 7 am to 7 PM EST Sunday.

* Impacts... gusty winds could blow around unsecured objects.
Tree limbs could be blown down and a few power outages may
result.

Precautionary/preparedness actions...

Use extra caution when driving, especially if operating a high
profile vehicle. Secure outdoor objects.



For more information from the National Weather Service visit
https://weather.Gov/box